Have a Safe July 4th! 

Flight Track Log - Related Links

Times and Time Zones

All times are in EDT time to prevent confusion due to time zone crossing. See the N30483 flight status page for this flight to view local times or setup timezone preferences in your user account.

Time Position Orientation Groundspeed Altitude Reporting Facility
EDT Latitude Longitude Course Direction KTS MPH feet Rate Location/Type
Sun 07:15:58 PM 41.3103 -71.4536 270° West 111 128 4,500  Level Boston Center
Sun 07:17:05 PM 41.3128 -71.5033 274° West 119 137 4,500  Level Boston Center
Sun 07:18:05 PM 41.3131 -71.5475 270° West 113 130 4,500  Level Boston Center
Sun 07:19:06 PM 41.3136 -71.5889 271° West 116 133 4,500  Level Boston Center
Sun 07:20:09 PM 41.3158 -71.6275 274° West 115 132 4,500  Level Boston Center
Sun 07:21:00 PM 41.3941 -71.5629 270° West  Level Estimated
Sun 07:21:14 PM 41.3183 -71.6744 274° West 113 130 4,500  Level Boston Center
Sun 07:22:15 PM 41.3247 -71.7186 281° West 111 128 4,500  Level Boston Center
Sun 07:23:15 PM 41.3272 -71.7628 274° West 113 130 4,500  Level Boston Center
Sun 07:24:17 PM 41.3317 -71.8044 278° West 113 130 4,500  Level Boston Center
Sun 07:25:18 PM 41.3339 -71.8458 274° West 113 130 4,500  Level Boston Center
Sun 07:26:14 PM 41.3383 -71.8844 279° West 118 136 4,500  Level Boston Center
Sun 07:27:20 PM 41.3406 -71.9258 274° West 111 128 4,500  Level Boston Center
Sun 07:28:21 PM 41.3408 -71.9700 270° West 117 135 4,500  Level Boston Center
Sun 07:29:21 PM 41.3450 -72.0114 278° West 107 123 4,500  Level Boston Center
Sun 07:30:22 PM 41.3472 -72.0503 274° West 105 121 4,500  Level Boston Center
Sun 07:31:23 PM 41.3494 -72.0917 274° West 108 124 4,500  Level Boston Center
Sun 07:32:17 PM 41.3517 -72.1303 274° West 109 125 4,500  Level Boston Center
Sun 07:33:24 PM 41.3517 -72.1719 270° West 109 125 4,500  Level Boston Center
Sun 07:34:24 PM 41.3561 -72.2106 279° West 108 124 4,500  Level Boston Center
Sun 07:35:28 PM 41.3603 -72.2492 278° West 106 122 4,500  Level Boston Center
Sun 07:36:29 PM 41.3644 -72.2908 278° West 106 122 4,500  Level Boston Center
Sun 07:38:00 PM 41.3746 -72.3496 283° West  Level FlightAware Approximate
Sun 07:45:00 PM 41.3794 -72.6301 269° West  Level FlightAware Approximate
Sun 07:46:00 PM 41.3787 -72.6699 269° West  Level FlightAware Approximate
Sun 07:47:00 PM 41.3780 -72.7097 269° West  Level FlightAware Approximate
Sun 07:48:00 PM 41.3772 -72.7495 269° West  Level FlightAware Approximate
Sun 07:49:00 PM 41.3765 -72.7893 269° West  Level FlightAware Approximate
Sun 07:50:00 PM 41.3757 -72.8290 269° West  Level FlightAware Approximate
Sun 07:51:00 PM 41.3749 -72.8688 268° West  Level FlightAware Approximate
Sun 07:52:00 PM 41.3741 -72.9086 268° West  Level FlightAware Approximate
Sun 07:53:00 PM 41.3733 -72.9484 268° West  Level FlightAware Approximate
Sun 07:54:00 PM 41.3725 -72.9882 268° West  Level FlightAware Approximate
Sun 07:55:00 PM 41.3716 -73.0280 268° West  Level FlightAware Approximate
Sun 07:56:00 PM 41.3708 -73.0678 268° West  Level FlightAware Approximate
Sun 07:57:00 PM 41.3699 -73.1076 268° West  Level FlightAware Approximate
Sun 07:58:00 PM 41.3690 -73.1474 268° West  Level FlightAware Approximate
Sun 07:59:00 PM 41.3681 -73.1871 268° West  Level FlightAware Approximate
Sun 08:00:00 PM 41.3672 -73.2269 268° West  Level FlightAware Approximate
Sun 08:01:00 PM 41.3667 -73.2667 270° West  Level FlightAware Approximate
Sun 08:02:00 PM 41.3667 -73.3065 270° West  Level FlightAware Approximate
Sun 08:03:00 PM 41.3667 -73.3463 270° West  Level FlightAware Approximate
Sun 08:04:00 PM 41.3667 -73.3861 270° West  Level FlightAware Approximate
Sun 08:05:00 PM 41.3667 -73.4259 270° West  Level FlightAware Approximate
Sun 08:06:00 PM 41.3667 -73.4657 270° West  Level FlightAware Approximate
Sun 08:07:00 PM 41.3667 -73.4667 270° West  Level FlightAware Approximate
Sun 08:08:00 PM 41.3715 -73.4822 270° West  Level Estimated
Sun 08:09:00 PM 41.3715 -73.4822 270° West  Level Estimated
Sun 08:10:00 PM 41.3715 -73.4822 270° West  Level Estimated
Sun 08:11:00 PM 41.3715 -73.4822 270° West  Level Estimated
Sun 08:12:00 PM 41.3715 -73.4822 270° West  Level Estimated
Sun 08:13:00 PM 41.3715 -73.4822 270° West  Level Estimated
Sun 08:14:00 PM 41.3715 -73.4822 270° West  Level Estimated
Sun 08:15:00 PM 41.3715 -73.4822 270° West  Level Estimated
Sun 08:16:00 PM 41.3715 -73.4822 270° West  Level Estimated
Sun 08:17:00 PM 41.3715 -73.4822 270° West  Level Estimated
Sun 08:18:00 PM 41.3715 -73.4822 270° West  Level Estimated
Sun 08:19:00 PM 41.3715 -73.4822 270° West  Level Estimated
Sun 08:20:00 PM 41.3715 -73.4822 270° West  Level Estimated
Sun 08:21:00 PM 41.3715 -73.4822 270° West  Level Estimated
Sun 08:22:00 PM 41.3715 -73.4822 270° West  Level Estimated

Login

Don't have an account? Register now (free) for customized features, flight alerts, and more!